createdAt,value
2018-09-21T00:01:09.977Z,24.63
2018-09-21T00:03:38.884Z,32.27
2018-09-21T00:06:07.727Z,32.80
2018-09-21T00:08:36.574Z,33.17
2018-09-21T00:11:05.484Z,36.50
2018-09-21T00:13:34.328Z,24.50
2018-09-21T00:16:03.184Z,29.07
2018-09-21T00:18:32.040Z,28.70
2018-09-21T00:21:00.951Z,25.53
2018-09-21T00:23:29.840Z,31.10
2018-09-21T00:25:58.764Z,32.93
2018-09-21T00:28:27.623Z,29.57
2018-09-21T00:30:56.533Z,26.37
2018-09-21T00:33:25.416Z,27.50
2018-09-21T00:35:54.329Z,27.83
2018-09-21T00:38:23.208Z,26.10
2018-09-21T00:40:52.193Z,30.10
2018-09-21T00:43:21.024Z,41.07
2018-09-21T00:45:49.881Z,31.43
2018-09-21T00:48:18.715Z,24.50
2018-09-21T00:50:47.588Z,28.43
2018-09-21T00:53:16.461Z,39.27
2018-09-21T00:55:45.311Z,23.90
2018-09-21T00:58:14.192Z,26.93
2018-09-21T01:00:43.088Z,29.00
2018-09-21T01:03:11.982Z,38.27
2018-09-21T01:05:40.857Z,27.20
2018-09-21T01:08:09.745Z,24.00
2018-09-21T01:10:38.608Z,29.40
2018-09-21T01:13:07.492Z,26.37
2018-09-21T01:15:36.382Z,22.97
2018-09-21T01:18:05.235Z,28.10
2018-09-21T01:20:34.088Z,30.60
2018-09-21T01:23:03.047Z,20.67
2018-09-21T01:25:31.876Z,23.97
2018-09-21T01:28:00.688Z,23.33
2018-09-21T01:30:29.592Z,33.37
2018-09-21T01:32:58.484Z,24.47
2018-09-21T01:35:27.397Z,31.60
2018-09-21T01:37:56.272Z,28.13
2018-09-21T01:40:25.128Z,33.23
2018-09-21T01:42:53.971Z,42.10
2018-09-21T01:45:22.885Z,27.10
2018-09-21T01:47:51.909Z,20.83
2018-09-21T01:50:20.833Z,28.50
2018-09-21T01:52:49.643Z,28.27
2018-09-21T01:55:18.554Z,29.40
2018-09-21T01:57:47.458Z,27.63
2018-09-21T02:00:16.309Z,22.80
2018-09-21T02:02:45.181Z,30.87
2018-09-21T02:05:14.014Z,32.57
2018-09-21T02:07:42.827Z,35.30
2018-09-21T02:10:11.704Z,25.53
2018-09-21T02:12:40.618Z,26.37
2018-09-21T02:15:09.506Z,22.20
2018-09-21T02:17:38.431Z,27.37
2018-09-21T02:20:07.307Z,20.33
2018-09-21T02:22:36.127Z,27.30
2018-09-21T02:25:05.125Z,34.77
2018-09-21T02:27:33.989Z,24.90
2018-09-21T02:30:02.908Z,25.27
2018-09-21T02:32:31.721Z,28.00
2018-09-21T02:35:00.568Z,25.70
2018-09-21T02:37:29.411Z,21.20
2018-09-21T02:39:58.237Z,22.60
2018-09-21T02:42:27.054Z,23.73
2018-09-21T02:44:55.915Z,25.60
2018-09-21T02:47:24.832Z,19.73
2018-09-21T02:49:53.689Z,20.53
2018-09-21T02:52:22.527Z,29.70
2018-09-21T02:54:51.385Z,29.23
2018-09-21T02:57:20.280Z,24.17
2018-09-21T02:59:49.140Z,22.80
2018-09-21T03:02:17.984Z,22.70
2018-09-21T03:04:53.467Z,27.63
2018-09-21T03:07:22.984Z,25.03
2018-09-21T03:09:51.848Z,21.50
2018-09-21T03:12:20.737Z,27.27
2018-09-21T03:14:49.600Z,20.17
2018-09-21T03:17:18.511Z,25.47
2018-09-21T03:19:47.388Z,19.83
2018-09-21T03:22:16.353Z,23.73
2018-09-21T03:24:45.239Z,30.20
2018-09-21T03:27:14.080Z,22.37
2018-09-21T03:29:42.940Z,19.83
2018-09-21T03:32:11.837Z,33.43
2018-09-21T03:34:40.658Z,21.63
2018-09-21T03:37:09.529Z,23.70
2018-09-21T03:39:38.374Z,26.20
2018-09-21T03:42:07.235Z,24.57
2018-09-21T03:44:36.120Z,20.90
2018-09-21T03:47:05.025Z,23.73
2018-09-21T03:49:33.901Z,24.90
2018-09-21T03:52:02.744Z,18.20
2018-09-21T03:54:31.605Z,23.47
2018-09-21T03:57:00.472Z,24.70
2018-09-21T03:59:29.354Z,21.13
2018-09-21T04:01:58.252Z,24.83
2018-09-21T04:04:27.095Z,19.87
2018-09-21T04:06:56.001Z,21.33
2018-09-21T04:09:24.903Z,20.20
2018-09-21T04:11:53.724Z,20.93
2018-09-21T04:14:22.602Z,20.50
2018-09-21T04:16:51.447Z,27.13
2018-09-21T04:19:20.308Z,29.00
2018-09-21T04:21:49.350Z,21.00
2018-09-21T04:24:18.235Z,23.10
2018-09-21T04:26:47.125Z,23.60
2018-09-21T04:29:16.005Z,22.13
2018-09-21T04:31:44.943Z,21.03
2018-09-21T04:34:13.792Z,17.57
2018-09-21T04:36:42.652Z,26.17
2018-09-21T04:39:12.707Z,22.13
2018-09-21T04:41:41.567Z,32.93
2018-09-21T04:44:10.493Z,23.90
2018-09-21T04:46:39.325Z,19.53
2018-09-21T04:49:08.375Z,35.73
2018-09-21T04:51:37.301Z,18.90
2018-09-21T04:54:06.209Z,22.90
2018-09-21T04:56:35.031Z,20.23
2018-09-21T04:59:03.936Z,26.53
2018-09-21T05:01:32.755Z,20.30
2018-09-21T05:04:01.628Z,21.00
2018-09-21T05:06:30.481Z,26.97
2018-09-21T05:08:59.673Z,32.30
2018-09-21T05:11:28.564Z,27.53
2018-09-21T05:13:57.532Z,30.40
2018-09-21T05:16:26.412Z,35.50
2018-09-21T05:18:55.276Z,49.17
2018-09-21T05:21:24.964Z,26.57
2018-09-21T05:23:53.832Z,22.57
2018-09-21T05:26:22.772Z,39.60
2018-09-21T05:28:51.640Z,29.07
2018-09-21T05:31:20.491Z,28.93
2018-09-21T05:33:49.360Z,27.00
2018-09-21T05:36:18.206Z,30.97
2018-09-21T05:38:47.149Z,34.67
2018-09-21T05:41:16.051Z,29.97
2018-09-21T05:43:44.879Z,27.73
2018-09-21T05:46:13.785Z,30.33
2018-09-21T05:48:42.716Z,23.17
2018-09-21T05:51:11.534Z,22.13
2018-09-21T05:53:40.459Z,31.67
2018-09-21T05:56:09.395Z,20.90
2018-09-21T05:58:38.243Z,23.83
2018-09-21T06:01:07.377Z,23.13
2018-09-21T06:03:36.315Z,21.70
2018-09-21T06:06:05.205Z,21.70
2018-09-21T06:08:34.081Z,29.17
2018-09-21T06:11:02.942Z,19.70
2018-09-21T06:13:31.870Z,23.50
2018-09-21T06:16:00.687Z,30.10
2018-09-21T06:18:29.598Z,19.40
2018-09-21T06:20:58.591Z,19.63
2018-09-21T06:23:27.687Z,20.20
2018-09-21T06:25:56.552Z,18.33
2018-09-21T06:28:25.770Z,17.57
2018-09-21T06:30:54.780Z,22.57
2018-09-21T06:33:23.633Z,26.57
2018-09-21T06:35:52.513Z,24.50
2018-09-21T06:38:21.446Z,20.57
2018-09-21T06:40:50.318Z,21.97
2018-09-21T06:43:19.192Z,29.83
2018-09-21T06:45:48.095Z,17.63
2018-09-21T06:48:16.979Z,20.80
2018-09-21T06:50:45.827Z,29.07
2018-09-21T06:53:14.735Z,17.63
2018-09-21T06:55:43.593Z,23.03
2018-09-21T06:58:12.428Z,19.83
2018-09-21T07:00:41.329Z,20.63
2018-09-21T07:03:10.205Z,16.43
2018-09-21T07:05:39.064Z,23.57
2018-09-21T07:08:07.882Z,15.37
2018-09-21T07:10:36.759Z,18.00
2018-09-21T07:13:05.737Z,34.10
2018-09-21T07:15:34.595Z,16.50
2018-09-21T07:18:03.453Z,22.97
2018-09-21T07:20:32.387Z,38.57
2018-09-21T07:23:01.287Z,25.93
2018-09-21T07:25:30.152Z,18.77
2018-09-21T07:27:59.077Z,32.53
2018-09-21T07:30:27.956Z,20.13
2018-09-21T07:32:56.880Z,18.50
2018-09-21T07:35:25.756Z,17.80
2018-09-21T07:37:54.604Z,23.40
2018-09-21T07:40:23.461Z,17.70
2018-09-21T07:42:52.301Z,17.97
2018-09-21T07:45:21.176Z,23.57
2018-09-21T07:47:50.059Z,19.80
2018-09-21T07:50:18.891Z,18.83
2018-09-21T07:52:47.788Z,15.20
2018-09-21T07:55:16.636Z,20.27
2018-09-21T07:57:45.489Z,17.97
2018-09-21T08:00:14.375Z,28.43
2018-09-21T08:02:43.218Z,26.27
2018-09-21T08:05:12.085Z,20.60
2018-09-21T08:07:40.908Z,18.67
2018-09-21T08:10:09.799Z,13.17
2018-09-21T08:12:38.621Z,15.40
2018-09-21T08:15:07.489Z,19.33
2018-09-21T08:17:36.431Z,14.87
2018-09-21T08:20:05.338Z,31.83
2018-09-21T08:22:34.221Z,29.77
2018-09-21T08:25:03.164Z,13.50
2018-09-21T08:27:32.041Z,19.60
2018-09-21T08:30:00.929Z,15.50
2018-09-21T08:32:29.864Z,20.93
2018-09-21T08:34:58.733Z,17.80
2018-09-21T08:37:27.662Z,14.77
2018-09-21T08:39:56.541Z,17.17
2018-09-21T08:42:25.411Z,19.97
2018-09-21T08:44:54.292Z,30.63
2018-09-21T08:47:23.135Z,18.47
2018-09-21T08:49:51.971Z,17.10
2018-09-21T08:52:20.849Z,20.60
2018-09-21T08:54:49.924Z,16.30
2018-09-21T08:57:18.853Z,18.17
2018-09-21T08:59:47.727Z,13.70
2018-09-21T09:02:16.568Z,13.87
2018-09-21T09:04:45.519Z,16.53
2018-09-21T09:07:14.417Z,13.67
2018-09-21T09:09:43.264Z,13.80
2018-09-21T09:12:12.152Z,14.07
2018-09-21T09:14:41.069Z,24.97
2018-09-21T09:17:09.981Z,18.93
2018-09-21T09:19:38.916Z,18.57
2018-09-21T09:22:07.912Z,15.97
2018-09-21T09:24:36.813Z,19.43
2018-09-21T09:27:05.674Z,19.50
2018-09-21T09:29:34.569Z,17.47
2018-09-21T09:32:03.500Z,18.87
2018-09-21T09:34:32.405Z,27.53
2018-09-21T09:37:01.264Z,29.77
2018-09-21T09:39:30.065Z,15.27
2018-09-21T09:41:58.899Z,17.23
2018-09-21T09:44:27.813Z,18.33
2018-09-21T09:46:56.660Z,22.37
2018-09-21T09:49:25.510Z,15.93
2018-09-21T09:51:54.401Z,22.13
2018-09-21T09:54:23.254Z,18.37
2018-09-21T09:56:52.079Z,26.03
2018-09-21T09:59:20.948Z,13.47
2018-09-21T10:01:49.854Z,20.13
2018-09-21T10:04:18.667Z,26.53
2018-09-21T10:06:47.548Z,23.23
2018-09-21T10:09:16.404Z,18.90
2018-09-21T10:11:45.305Z,25.13
2018-09-21T10:14:14.168Z,14.80
2018-09-21T10:16:43.008Z,24.63
2018-09-21T10:19:11.839Z,12.40
2018-09-21T10:21:40.509Z,24.60
2018-09-21T10:24:09.386Z,13.60
2018-09-21T10:26:38.219Z,14.10
2018-09-21T10:29:07.070Z,24.50
2018-09-21T10:31:36.011Z,16.83
2018-09-21T10:34:04.862Z,23.90
2018-09-21T10:36:33.724Z,18.23
2018-09-21T10:39:02.599Z,20.57
2018-09-21T10:41:31.430Z,30.53
2018-09-21T10:44:00.274Z,22.50
2018-09-21T10:46:29.152Z,14.90
2018-09-21T10:48:58.041Z,16.93
2018-09-21T10:51:26.879Z,19.93
2018-09-21T10:53:55.731Z,19.00
2018-09-21T10:56:24.592Z,19.10
2018-09-21T10:58:53.466Z,29.63
2018-09-21T11:01:22.328Z,30.33
2018-09-21T11:03:51.130Z,29.83
2018-09-21T11:06:20.042Z,16.40
2018-09-21T11:08:48.878Z,21.63
2018-09-21T11:11:17.718Z,13.73
2018-09-21T11:13:46.640Z,26.87
2018-09-21T11:16:15.691Z,21.60
2018-09-21T11:18:44.572Z,25.40
2018-09-21T11:21:13.463Z,29.87
2018-09-21T11:23:42.348Z,24.40
2018-09-21T11:26:11.225Z,17.10
2018-09-21T11:28:40.070Z,18.87
2018-09-21T11:31:08.968Z,52.10
2018-09-21T11:33:37.819Z,26.33
2018-09-21T11:36:06.692Z,41.80
2018-09-21T11:38:35.589Z,25.20
2018-09-21T11:41:04.464Z,26.20
2018-09-21T11:43:33.314Z,22.73
2018-09-21T11:46:02.208Z,35.03
2018-09-21T11:48:31.102Z,23.43
2018-09-21T11:51:00.001Z,23.10
2018-09-21T11:53:28.852Z,18.20
2018-09-21T11:55:57.691Z,26.13
2018-09-21T11:58:26.573Z,38.93
2018-09-21T12:00:55.465Z,25.03
2018-09-21T12:03:24.271Z,20.47
2018-09-21T12:05:53.177Z,19.03
2018-09-21T12:08:22.041Z,49.27
2018-09-21T12:10:50.916Z,98.50
2018-09-21T12:13:19.805Z,93.20
2018-09-21T12:15:48.728Z,115.77
2018-09-21T12:18:17.658Z,81.00
2018-09-21T12:20:46.508Z,55.30
2018-09-21T12:23:15.339Z,32.83
2018-09-21T12:25:44.182Z,38.73
2018-09-21T12:28:13.076Z,35.70
2018-09-21T12:30:42.003Z,37.80
2018-09-21T12:33:10.825Z,28.20
2018-09-21T12:35:39.677Z,22.30
2018-09-21T12:38:08.948Z,22.33
2018-09-21T12:40:37.826Z,33.10
2018-09-21T12:43:06.988Z,24.80
2018-09-21T12:45:36.010Z,17.23
2018-09-21T12:48:04.965Z,26.87
2018-09-21T12:50:33.841Z,29.27
2018-09-21T12:53:02.650Z,31.63
2018-09-21T12:55:31.474Z,50.43
2018-09-21T12:58:00.435Z,34.57
2018-09-21T13:00:34.673Z,71.47
2018-09-21T13:03:03.557Z,63.33
2018-09-21T13:05:32.438Z,76.43
2018-09-21T13:08:01.323Z,67.90
2018-09-21T13:10:30.188Z,31.43
2018-09-21T13:12:59.043Z,46.30
2018-09-21T13:15:27.926Z,31.77
2018-09-21T13:17:56.771Z,36.70
2018-09-21T13:20:25.644Z,44.33
2018-09-21T13:22:54.457Z,37.37
2018-09-21T13:25:23.362Z,36.03
2018-09-21T13:27:52.237Z,42.23
2018-09-21T13:30:21.113Z,42.27
2018-09-21T13:32:49.979Z,38.40
2018-09-21T13:35:18.802Z,32.70
2018-09-21T13:37:47.779Z,23.60
2018-09-21T13:40:16.719Z,29.37
2018-09-21T13:42:45.597Z,34.07
2018-09-21T13:45:14.427Z,39.03
2018-09-21T13:47:43.292Z,23.03
2018-09-21T13:50:12.164Z,28.63
2018-09-21T13:52:41.045Z,17.90
2018-09-21T13:55:09.922Z,20.03
2018-09-21T13:57:38.772Z,29.10
2018-09-21T14:00:08.446Z,37.97
2018-09-21T14:02:37.304Z,21.27
2018-09-21T14:05:06.535Z,24.20
2018-09-21T14:07:35.413Z,34.50
2018-09-21T14:10:04.288Z,22.77
2018-09-21T14:12:33.193Z,24.77
2018-09-21T14:15:02.085Z,32.37
2018-09-21T14:17:31.113Z,22.87
2018-09-21T14:19:59.940Z,36.27
2018-09-21T14:22:28.766Z,36.90
2018-09-21T14:24:57.649Z,19.13
2018-09-21T14:27:26.569Z,35.27
2018-09-21T14:29:55.421Z,28.43
2018-09-21T14:32:24.267Z,31.20
2018-09-21T14:34:53.158Z,30.77
2018-09-21T14:37:23.140Z,32.87
2018-09-21T14:39:52.004Z,27.20
2018-09-21T14:42:20.897Z,17.70
2018-09-21T14:44:49.808Z,31.53
2018-09-21T14:47:18.648Z,33.07
2018-09-21T14:49:47.514Z,23.63
2018-09-21T14:52:16.684Z,14.60
2018-09-21T14:54:45.564Z,96.60
2018-09-21T14:57:14.556Z,112.97
2018-09-21T14:59:43.459Z,82.80
2018-09-21T15:02:12.271Z,63.03
2018-09-21T15:04:41.096Z,84.33
2018-09-21T15:07:09.936Z,57.70
2018-09-21T15:09:38.824Z,41.53
2018-09-21T15:12:07.722Z,28.50
2018-09-21T15:14:36.555Z,33.53
2018-09-21T15:17:05.517Z,20.90
2018-09-21T15:19:34.384Z,30.83
2018-09-21T15:22:03.263Z,13.40
2018-09-21T15:24:32.157Z,14.20
2018-09-21T15:27:01.060Z,30.10
2018-09-21T15:29:29.898Z,13.87
2018-09-21T15:31:58.729Z,13.93
2018-09-21T15:34:27.587Z,14.60
2018-09-21T15:36:56.407Z,13.67
2018-09-21T15:39:25.241Z,15.13
2018-09-21T15:41:54.126Z,15.23
2018-09-21T15:44:22.995Z,16.27
2018-09-21T15:46:51.951Z,22.33
2018-09-21T15:49:20.808Z,14.40
2018-09-21T15:51:49.699Z,10.40
2018-09-21T15:54:18.546Z,14.53
2018-09-21T15:56:47.450Z,26.27
2018-09-21T15:59:16.336Z,13.67
2018-09-21T16:01:45.222Z,20.23
2018-09-21T16:04:14.094Z,13.60
2018-09-21T16:06:43.041Z,11.27
2018-09-21T16:09:11.933Z,20.10
2018-09-21T16:11:40.813Z,13.27
2018-09-21T16:14:09.722Z,10.37
2018-09-21T16:16:38.740Z,9.20
2018-09-21T16:19:07.739Z,11.33
2018-09-21T16:21:36.629Z,11.00
2018-09-21T16:24:05.533Z,15.70
2018-09-21T16:26:34.374Z,11.37
2018-09-21T16:29:03.334Z,14.57
2018-09-21T16:31:32.224Z,10.57
2018-09-21T16:34:01.068Z,15.07
2018-09-21T16:36:29.882Z,9.97
2018-09-21T16:38:58.841Z,13.57
2018-09-21T16:41:27.742Z,19.80
2018-09-21T16:43:56.816Z,14.20
2018-09-21T16:46:25.656Z,11.80
2018-09-21T16:48:54.495Z,11.80
2018-09-21T16:51:23.421Z,15.70
2018-09-21T16:53:52.221Z,15.03
2018-09-21T16:56:21.031Z,11.30
2018-09-21T16:58:49.888Z,24.77
2018-09-21T17:01:18.998Z,12.17
2018-09-21T17:03:47.840Z,17.73
2018-09-21T17:06:16.832Z,14.93
2018-09-21T17:08:45.691Z,15.70
2018-09-21T17:11:14.694Z,13.70
2018-09-21T17:13:43.621Z,11.30
2018-09-21T17:16:12.501Z,12.80
2018-09-21T17:18:41.394Z,21.17
2018-09-21T17:21:10.339Z,12.87
2018-09-21T17:23:39.237Z,18.20
2018-09-21T17:26:08.148Z,17.80
2018-09-21T17:28:37.093Z,17.17
2018-09-21T17:31:05.970Z,14.63
2018-09-21T17:33:34.809Z,24.97
2018-09-21T17:36:03.659Z,18.63
2018-09-21T17:38:32.548Z,12.50
2018-09-21T17:41:01.416Z,18.13
2018-09-21T17:43:30.280Z,15.27
2018-09-21T17:45:59.202Z,13.07
2018-09-21T17:48:28.023Z,18.67
2018-09-21T17:50:56.867Z,18.63
2018-09-21T17:53:25.744Z,12.97
2018-09-21T17:55:54.607Z,20.40
2018-09-21T17:58:23.497Z,16.13
2018-09-21T18:00:52.351Z,13.43
2018-09-21T18:03:21.175Z,27.30
2018-09-21T18:05:50.280Z,16.13
2018-09-21T18:08:19.307Z,12.77
2018-09-21T18:10:48.171Z,18.97
2018-09-21T18:13:17.035Z,13.77
2018-09-21T18:15:45.967Z,18.53
2018-09-21T18:18:14.889Z,26.73
2018-09-21T18:20:43.813Z,24.47
2018-09-21T18:23:12.796Z,22.93
2018-09-21T18:25:41.690Z,27.17
2018-09-21T18:28:10.585Z,18.77
2018-09-21T18:30:39.516Z,18.77
2018-09-21T18:33:08.347Z,17.50
2018-09-21T18:35:37.477Z,18.17
2018-09-21T18:38:06.363Z,26.87
2018-09-21T18:40:35.282Z,20.50
2018-09-21T18:43:04.135Z,25.60
2018-09-21T18:45:32.951Z,27.20
2018-09-21T18:48:01.897Z,20.40
2018-09-21T18:50:30.904Z,23.23
2018-09-21T18:52:59.693Z,18.80
2018-09-21T18:55:28.541Z,22.60
2018-09-21T18:57:57.363Z,24.53
2018-09-21T19:00:26.224Z,16.73
2018-09-21T19:02:55.089Z,21.23
2018-09-21T19:05:24.010Z,18.70
2018-09-21T19:07:52.864Z,25.47
2018-09-21T19:10:21.674Z,28.70
2018-09-21T19:12:50.491Z,13.97
2018-09-21T19:15:19.384Z,19.73
2018-09-21T19:17:48.429Z,25.40
2018-09-21T19:20:17.377Z,22.73
2018-09-21T19:22:46.248Z,23.87
2018-09-21T19:25:15.129Z,27.00
2018-09-21T19:27:44.004Z,22.43
2018-09-21T19:30:12.855Z,27.83
2018-09-21T19:32:41.775Z,19.23
2018-09-21T19:35:10.631Z,15.90
2018-09-21T19:37:39.463Z,16.33
2018-09-21T19:40:08.321Z,18.57
2018-09-21T19:42:37.344Z,20.13
2018-09-21T19:45:06.978Z,18.00
2018-09-21T19:47:35.776Z,18.40
2018-09-21T19:50:05.301Z,20.27
2018-09-21T19:52:34.176Z,20.87
2018-09-21T19:55:03.203Z,15.60
2018-09-21T19:57:32.010Z,22.50
2018-09-21T20:00:00.906Z,19.63
2018-09-21T20:02:29.812Z,23.07
2018-09-21T20:04:58.767Z,20.13
2018-09-21T20:07:27.587Z,21.60
2018-09-21T20:09:56.423Z,19.63
2018-09-21T20:12:25.716Z,15.03
2018-09-21T20:14:54.564Z,17.13
2018-09-21T20:17:23.446Z,18.17
2018-09-21T20:19:52.344Z,16.63
2018-09-21T20:22:21.199Z,26.47
2018-09-21T20:24:50.193Z,16.60
2018-09-21T20:27:19.133Z,18.83
2018-09-21T20:29:48.060Z,16.80
2018-09-21T20:32:22.380Z,14.40
2018-09-21T20:34:51.300Z,19.23
2018-09-21T20:37:20.181Z,14.30
2018-09-21T20:39:49.016Z,23.90
2018-09-21T20:42:17.862Z,16.97
2018-09-21T20:44:46.793Z,25.37
2018-09-21T20:47:15.720Z,14.00
2018-09-21T20:49:44.670Z,17.53
2018-09-21T20:52:13.591Z,16.27
2018-09-21T20:54:42.468Z,14.73
2018-09-21T20:57:11.350Z,15.23
2018-09-21T20:59:40.231Z,22.23
2018-09-21T21:02:09.109Z,18.90
2018-09-21T21:04:38.012Z,15.90
2018-09-21T21:07:06.920Z,18.63
2018-09-21T21:09:35.822Z,11.80
2018-09-21T21:12:04.695Z,21.03
2018-09-21T21:14:33.549Z,17.13
2018-09-21T21:17:02.394Z,18.67
2018-09-21T21:19:31.242Z,11.60
2018-09-21T21:22:00.164Z,14.70
2018-09-21T21:24:29.063Z,14.13
2018-09-21T21:26:57.974Z,18.10
2018-09-21T21:29:26.864Z,14.40
2018-09-21T21:31:55.703Z,14.53
2018-09-21T21:34:24.568Z,22.57
2018-09-21T21:36:53.601Z,11.50
2018-09-21T21:39:22.452Z,20.07
2018-09-21T21:41:51.290Z,12.73
2018-09-21T21:44:20.106Z,13.23
2018-09-21T21:46:49.086Z,13.37
2018-09-21T21:49:17.999Z,11.63
2018-09-21T21:51:46.827Z,14.10
2018-09-21T21:54:15.750Z,15.47
2018-09-21T21:56:44.644Z,18.50
2018-09-21T21:59:13.605Z,12.97
2018-09-21T22:01:46.811Z,11.63
2018-09-21T22:04:17.057Z,12.23
2018-09-21T22:06:45.919Z,14.13
2018-09-21T22:09:14.842Z,16.60
2018-09-21T22:11:49.317Z,10.43
2018-09-21T22:14:18.174Z,16.53
2018-09-21T22:16:47.073Z,14.27
2018-09-21T22:19:15.939Z,13.77
2018-09-21T22:21:44.808Z,9.40
2018-09-21T22:24:13.700Z,12.63
2018-09-21T22:26:42.618Z,14.87
2018-09-21T22:29:11.547Z,9.90
2018-09-21T22:31:40.481Z,10.53
2018-09-21T22:34:09.388Z,12.73
2018-09-21T22:36:38.251Z,10.97
2018-09-21T22:39:08.952Z,10.07
2018-09-21T22:41:37.824Z,12.70
2018-09-21T22:44:06.722Z,25.23
2018-09-21T22:46:35.596Z,10.40
2018-09-21T22:49:07.659Z,10.57
2018-09-21T22:51:36.482Z,15.20
2018-09-21T22:54:05.360Z,10.77
2018-09-21T22:56:34.232Z,10.53
2018-09-21T22:59:03.089Z,13.40
2018-09-21T23:01:31.999Z,9.47
2018-09-21T23:04:00.918Z,12.43
2018-09-21T23:06:29.759Z,11.60
2018-09-21T23:08:58.671Z,10.20
2018-09-21T23:11:27.670Z,12.00
2018-09-21T23:13:56.540Z,12.90
2018-09-21T23:16:25.416Z,11.63
2018-09-21T23:18:54.307Z,10.30
2018-09-21T23:21:23.158Z,13.20
2018-09-21T23:23:52.050Z,17.00
2018-09-21T23:26:21.006Z,15.00
2018-09-21T23:28:49.847Z,9.90
2018-09-21T23:31:18.707Z,13.77
2018-09-21T23:33:47.583Z,8.90
2018-09-21T23:36:16.472Z,10.77
2018-09-21T23:38:45.378Z,12.20
2018-09-21T23:41:14.423Z,10.10
2018-09-21T23:43:43.345Z,10.03
2018-09-21T23:46:12.228Z,11.10
2018-09-21T23:48:41.090Z,10.27
2018-09-21T23:51:10.783Z,10.63
2018-09-21T23:53:39.840Z,10.13
2018-09-21T23:56:09.405Z,9.13
2018-09-21T23:58:38.631Z,13.40
